Time;durP1;ratioP1;P1;durP2;ratioP2;P2;SDS_P1;SDS_P2;PMS_P1;PMS_P2;Temp;Humidity;BMP_temperature;BMP_pressure;BME280_temperature;BME280_humidity;BME280_pressure;Samples;Min_cycle;Max_cycle;Signal;HPM_P1;HPM_P2
2022/04/07 07:27:44;;;;;;;4.38;2.45;;;;;;;;;;7368936;19;132684;-17
2022/04/07 07:30:17;;;;;;;4.00;2.22;;;;;;;;;;7364471;19;153817;-15
2022/04/07 07:32:51;;;;;;;;;;;;;;;;;;7364624;19;162208;-15
2022/04/07 07:35:22;;;;;;;4.03;2.30;;;;;;;;;;7363576;19;162841;-14
2022/04/07 07:37:55;;;;;;;4.85;2.03;;;;;;;;;;7367483;19;153566;-15
2022/04/07 07:40:29;;;;;;;6.55;2.20;;;;;;;;;;7363136;19;153826;-16
2022/04/07 07:43:03;;;;;;;4.30;2.00;;;;;;;;;;7363634;19;162012;-14
2022/04/07 07:45:36;;;;;;;4.97;2.10;;;;;;;;;;7362338;19;162440;-14
2022/04/07 07:48:21;;;;;;;6.93;3.05;;;;;;;;;;7362772;19;154164;-13
2022/04/07 07:50:52;;;;;;;4.93;2.30;;;;;;;;;;7366342;19;153645;-14
2022/04/07 07:53:23;;;;;;;4.70;2.10;;;;;;;;;;7368230;19;161982;-13
2022/04/07 07:55:56;;;;;;;6.00;2.33;;;;;;;;;;7367061;19;162389;-14
2022/04/07 07:58:30;;;;;;;4.90;2.67;;;;;;;;;;7363937;19;153947;-13
2022/04/07 08:01:02;;;;;;;5.57;1.88;;;;;;;;;;7366230;19;153828;-15
2022/04/07 08:03:33;;;;;;;7.07;1.97;;;;;;;;;;7364128;19;161982;-14
2022/04/07 08:06:05;;;;;;;6.57;1.85;;;;;;;;;;7362662;19;162809;-14
2022/04/07 08:08:36;;;;;;;3.67;1.75;;;;;;;;;;7367539;19;153960;-14
2022/04/07 08:11:09;;;;;;;3.85;1.90;;;;;;;;;;7367722;19;153470;-14
2022/04/07 08:13:46;;;;;;;6.18;1.90;;;;;;;;;;7366081;19;162170;-14
2022/04/07 08:16:17;;;;;;;2.75;1.77;;;;;;;;;;7361790;19;162373;-14
2022/04/07 08:18:48;;;;;;;4.35;1.88;;;;;;;;;;7364519;19;153896;-14
2022/04/07 08:21:20;;;;;;;5.47;1.92;;;;;;;;;;7362799;19;153535;-14
2022/04/07 08:23:51;;;;;;;2.05;1.20;;;;;;;;;;7363087;19;161797;-14
2022/04/07 08:26:23;;;;;;;5.28;1.88;;;;;;;;;;7356849;19;162392;-14
2022/04/07 08:28:57;;;;;;;3.50;1.83;;;;;;;;;;7330045;19;154139;-14
2022/04/07 08:31:28;;;;;;;3.92;1.58;;;;;;;;;;7333846;19;153622;-14
2022/04/07 08:33:59;;;;;;;3.67;1.73;;;;;;;;;;7333621;19;161908;-15
2022/04/07 08:36:31;;;;;;;7.10;1.77;;;;;;;;;;7330933;19;162486;-13
2022/04/07 08:39:02;;;;;;;9.00;1.92;;;;;;;;;;7332430;19;154232;-14
2022/04/07 08:41:34;;;;;;;3.28;1.70;;;;;;;;;;7332753;19;153568;-14
2022/04/07 08:44:08;;;;;;;2.80;1.53;;;;;;;;;;7333326;19;161812;-14
2022/04/07 08:46:41;;;;;;;2.60;1.60;;;;;;;;;;7333273;19;162352;-14
2022/04/07 08:49:13;;;;;;;3.63;1.80;;;;;;;;;;7333492;19;153928;-15
2022/04/07 08:51:44;;;;;;;4.13;1.70;;;;;;;;;;7333496;19;153876;-14
2022/04/07 08:54:15;;;;;;;6.55;2.15;;;;;;;;;;7333016;19;161851;-14
2022/04/07 08:56:47;;;;;;;4.55;1.77;;;;;;;;;;7331696;19;162944;-15
2022/04/07 08:59:21;;;;;;;2.92;1.40;;;;;;;;;;7332133;19;154091;-14
2022/04/07 09:01:52;;;;;;;3.05;1.77;;;;;;;;;;7333063;19;153655;-14
2022/04/07 09:04:24;;;;;;;2.92;1.17;;;;;;;;;;7332852;19;161953;-15
2022/04/07 09:06:58;;;;;;;3.13;1.60;;;;;;;;;;7332621;19;162477;-15
2022/04/07 09:09:33;;;;;;;3.20;1.73;;;;;;;;;;7332869;19;154151;-13
2022/04/07 09:12:05;;;;;;;2.42;1.40;;;;;;;;;;7332929;19;153827;-14
2022/04/07 09:14:40;;;;;;;2.45;1.45;;;;;;;;;;7332726;19;162150;-14
2022/04/07 09:17:12;;;;;;;2.83;1.70;;;;;;;;;;7331305;19;162574;-15
2022/04/07 09:19:43;;;;;;;1.60;1.20;;;;;;;;;;7332718;19;153939;-15
2022/04/07 09:22:14;;;;;;;2.53;1.77;;;;;;;;;;7332723;19;153595;-14
2022/04/07 09:24:46;;;;;;;2.15;1.40;;;;;;;;;;7332048;19;161814;-14
2022/04/07 09:27:18;;;;;;;4.88;1.63;;;;;;;;;;7328826;19;162476;-14
2022/04/07 09:29:57;;;;;;;2.43;1.53;;;;;;;;;;7335426;19;154004;-14
2022/04/07 09:32:29;;;;;;;2.38;1.23;;;;;;;;;;7336963;19;153833;-14
2022/04/07 09:35:02;;;;;;;5.40;1.75;;;;;;;;;;7333662;19;161787;-14
2022/04/07 09:37:34;;;;;;;5.97;1.52;;;;;;;;;;7328600;19;162526;-15
2022/04/07 09:40:07;;;;;;;2.38;1.48;;;;;;;;;;7329673;19;153982;-16
2022/04/07 09:42:41;;;;;;;2.80;1.80;;;;;;;;;;7332217;19;153576;-13
2022/04/07 09:45:16;;;;;;;2.38;1.35;;;;;;;;;;7330523;19;163526;-14
2022/04/07 09:47:48;;;;;;;2.10;1.27;;;;;;;;;;7331461;19;162726;-14
2022/04/07 09:50:28;;;;;;;1.27;1.10;;;;;;;;;;7332023;19;154028;-14
2022/04/07 09:53:03;;;;;;;2.75;1.60;;;;;;;;;;7331739;19;153475;-14
2022/04/07 09:55:37;;;;;;;6.43;1.95;;;;;;;;;;7331468;19;161999;-14
2022/04/07 09:58:11;;;;;;;3.80;1.50;;;;;;;;;;7329015;19;162539;-14
2022/04/07 10:00:45;;;;;;;1.33;1.23;;;;;;;;;;7331447;19;153959;-14
2022/04/07 10:03:17;;;;;;;3.08;1.30;;;;;;;;;;7331299;19;153924;-15
2022/04/07 10:05:49;;;;;;;3.95;1.40;;;;;;;;;;7331047;19;162116;-14
2022/04/07 10:08:22;;;;;;;3.25;1.27;;;;;;;;;;7330610;19;162443;-14
2022/04/07 10:10:53;;;;;;;3.33;1.55;;;;;;;;;;7331387;19;154130;-14
2022/04/07 10:13:24;;;;;;;5.05;1.50;;;;;;;;;;7329904;19;153585;-15
2022/04/07 10:16:00;;;;;;;4.35;1.23;;;;;;;;;;7330521;19;161779;-14
2022/04/07 10:18:36;;;;;;;1.52;1.20;;;;;;;;;;7327208;19;162367;-14
2022/04/07 10:21:10;;;;;;;1.45;1.10;;;;;;;;;;7329756;19;154117;-14
2022/04/07 10:23:51;;;;;;;3.15;1.48;;;;;;;;;;7330863;19;153551;-13
2022/04/07 10:26:24;;;;;;;1.38;1.15;;;;;;;;;;7328816;19;162186;-15
2022/04/07 10:28:59;;;;;;;;;;;;;;;;;;7331017;19;163114;-14
2022/04/07 10:31:32;;;;;;;2.10;1.38;;;;;;;;;;7330838;19;154048;-15
2022/04/07 10:34:10;;;;;;;2.13;1.17;;;;;;;;;;7330671;19;153567;-15
2022/04/07 10:36:43;;;;;;;2.72;1.30;;;;;;;;;;7330226;19;161974;-14
2022/04/07 10:39:15;;;;;;;;;;;;;;;;;;7328112;19;162386;-14
2022/04/07 10:41:50;;;;;;;1.60;1.10;;;;;;;;;;7329603;19;154263;-14
2022/04/07 10:44:23;;;;;;;3.90;1.37;;;;;;;;;;7330583;19;153421;-13
2022/04/07 10:47:08;;;;;;;1.45;1.15;;;;;;;;;;7329867;19;162022;-14
2022/04/07 10:49:49;;;;;;;3.97;1.40;;;;;;;;;;7329299;19;162330;-13
2022/04/07 10:52:28;;;;;;;2.97;1.30;;;;;;;;;;7330206;19;154094;-14
2022/04/07 10:55:13;;;;;;;1.10;1.00;;;;;;;;;;7330043;19;153573;-15
2022/04/07 10:58:20;;;;;;;2.20;0.93;;;;;;;;;;7329032;19;161789;-14
2022/04/07 11:00:51;;;;;;;1.50;0.95;;;;;;;;;;7328855;19;162616;-14
2022/04/07 11:03:25;;;;;;;2.35;1.50;;;;;;;;;;7329662;19;154389;-13
2022/04/07 11:06:01;;;;;;;3.20;1.00;;;;;;;;;;7329571;19;153728;-13
2022/04/07 11:08:32;;;;;;;1.98;1.20;;;;;;;;;;7329230;19;162026;-14
2022/04/07 11:11:03;;;;;;;2.50;1.27;;;;;;;;;;7328640;19;162517;-14
2022/04/07 11:13:45;;;;;;;1.52;1.00;;;;;;;;;;7329368;19;153974;-15
2022/04/07 11:16:29;;;;;;;1.73;0.85;;;;;;;;;;7329067;19;153484;-15
2022/04/07 11:19:23;;;;;;;1.40;1.25;;;;;;;;;;7325773;19;161774;-15
2022/04/07 11:21:54;;;;;;;1.85;1.10;;;;;;;;;;7328684;19;162366;-14
2022/04/07 11:24:28;;;;;;;1.38;0.80;;;;;;;;;;7329136;19;153990;-14
2022/04/07 11:27:34;;;;;;;1.35;1.25;;;;;;;;;;7326900;19;153639;-15
2022/04/07 11:30:10;;;;;;;1.67;1.25;;;;;;;;;;7328492;19;161784;-14
2022/04/07 11:33:01;;;;;;;1.33;1.00;;;;;;;;;;7328408;19;162378;-14
2022/04/07 11:35:35;;;;;;;2.55;1.10;;;;;;;;;;7327536;19;154012;-14
2022/04/07 11:38:08;;;;;;;1.70;0.80;;;;;;;;;;7327888;19;153492;-14
2022/04/07 11:40:39;;;;;;;1.05;0.98;;;;;;;;;;7328160;19;161817;-14
2022/04/07 11:43:12;;;;;;;1.05;0.82;;;;;;;;;;7327907;19;162493;-15
2022/04/07 11:45:47;;;;;;;1.90;0.93;;;;;;;;;;7328332;19;153967;-15
2022/04/07 11:48:19;;;;;;;1.25;1.10;;;;;;;;;;7328202;19;153600;-15
2022/04/07 11:50:53;;;;;;;1.85;1.05;;;;;;;;;;7328024;19;161931;-14
2022/04/07 11:53:26;;;;;;;1.65;0.75;;;;;;;;;;7327606;19;162439;-15
2022/04/07 11:56:16;;;;;;;1.20;1.10;;;;;;;;;;7327024;19;154169;-15
2022/04/07 11:58:52;;;;;;;1.42;1.00;;;;;;;;;;7326582;19;153279;-14
2022/04/07 12:01:23;;;;;;;0.98;0.95;;;;;;;;;;7327448;19;161871;-17
2022/04/07 12:03:56;;;;;;;2.35;0.90;;;;;;;;;;7333940;19;163214;-16
2022/04/07 12:06:32;;;;;;;2.20;1.20;;;;;;;;;;7333830;19;154010;-15
2022/04/07 12:09:04;;;;;;;1.40;1.08;;;;;;;;;;7334511;19;153525;-15
2022/04/07 12:11:38;;;;;;;0.97;0.90;;;;;;;;;;7333559;19;161930;-14
2022/04/07 12:14:11;;;;;;;1.27;0.93;;;;;;;;;;7334017;19;162699;-14
2022/04/07 12:16:47;;;;;;;1.67;0.80;;;;;;;;;;7334102;19;154035;-13
2022/04/07 12:19:20;;;;;;;0.80;0.80;;;;;;;;;;7333086;19;153735;-14
2022/04/07 12:21:58;;;;;;;0.88;0.88;;;;;;;;;;7333787;19;161897;-14
2022/04/07 12:24:31;;;;;;;1.52;0.82;;;;;;;;;;7333662;19;162349;-14
2022/04/07 12:27:03;;;;;;;0.82;0.80;;;;;;;;;;7332036;19;154165;-15
2022/04/07 12:29:35;;;;;;;1.10;1.00;;;;;;;;;;7334221;19;154147;-14
2022/04/07 12:32:09;;;;;;;0.80;0.80;;;;;;;;;;7333647;19;161925;-15
2022/04/07 12:34:55;;;;;;;1.75;0.90;;;;;;;;;;7333391;19;162375;-16
2022/04/07 12:37:36;;;;;;;0.93;0.90;;;;;;;;;;7332821;19;153934;-14
2022/04/07 12:40:29;;;;;;;0.95;0.93;;;;;;;;;;7331820;19;154384;-15
2022/04/07 12:43:01;;;;;;;0.80;0.70;;;;;;;;;;7333425;19;161840;-14
2022/04/07 12:45:34;;;;;;;1.33;0.90;;;;;;;;;;7332651;19;162277;-15
2022/04/07 12:48:10;;;;;;;0.90;0.80;;;;;;;;;;7333115;19;154025;-14
2022/04/07 12:50:56;;;;;;;3.00;1.10;;;;;;;;;;7332837;19;153819;-14
2022/04/07 12:53:35;;;;;;;0.80;0.63;;;;;;;;;;7332690;19;162075;-14
2022/04/07 12:56:21;;;;;;;0.90;0.88;;;;;;;;;;7332993;19;162407;-16
2022/04/07 12:59:03;;;;;;;1.13;0.73;;;;;;;;;;7332586;19;153989;-16
2022/04/07 13:01:34;;;;;;;1.10;0.98;;;;;;;;;;7333168;19;153565;-14
2022/04/07 13:04:08;;;;;;;0.93;0.93;;;;;;;;;;7332577;19;162003;-14
2022/04/07 13:06:40;;;;;;;1.30;0.70;;;;;;;;;;7332303;19;162315;-15
2022/04/07 13:09:16;;;;;;;0.85;0.80;;;;;;;;;;7332988;19;153899;-14
2022/04/07 13:11:48;;;;;;;1.05;0.80;;;;;;;;;;7332073;19;153690;-15
2022/04/07 13:14:21;;;;;;;0.70;0.70;;;;;;;;;;7332246;19;161875;-14
2022/04/07 13:16:52;;;;;;;1.98;1.50;;;;;;;;;;7332718;19;163526;-15
2022/04/07 13:19:23;;;;;;;1.75;0.90;;;;;;;;;;7332029;19;154028;-14
2022/04/07 13:21:55;;;;;;;1.42;0.93;;;;;;;;;;7332648;19;153545;-14
2022/04/07 13:24:28;;;;;;;1.30;0.73;;;;;;;;;;7332314;19;162117;-14
2022/04/07 13:27:00;;;;;;;2.17;1.13;;;;;;;;;;7330334;19;162365;-14
2022/04/07 13:29:32;;;;;;;1.30;0.80;;;;;;;;;;7332820;19;154428;-13
2022/04/07 13:32:03;;;;;;;2.13;0.88;;;;;;;;;;7331692;19;153510;-13
2022/04/07 13:34:35;;;;;;;1.98;0.80;;;;;;;;;;7332027;19;161781;-13
2022/04/07 13:37:07;;;;;;;1.50;0.93;;;;;;;;;;7332125;19;162401;-13
2022/04/07 13:39:41;;;;;;;2.33;1.00;;;;;;;;;;7331492;19;154120;-14
2022/04/07 13:42:19;;;;;;;1.10;0.90;;;;;;;;;;7332284;19;153833;-15
2022/04/07 13:44:50;;;;;;;0.90;0.90;;;;;;;;;;7332059;19;161849;-14
2022/04/07 13:47:22;;;;;;;0.80;0.80;;;;;;;;;;7331815;19;162361;-14
2022/04/07 13:49:53;;;;;;;0.90;0.90;;;;;;;;;;7332321;19;154106;-14
2022/04/07 13:52:24;;;;;;;1.23;1.00;;;;;;;;;;7332149;19;153706;-14
2022/04/07 13:54:58;;;;;;;0.98;0.98;;;;;;;;;;7331568;19;162070;-15
2022/04/07 13:57:29;;;;;;;1.25;0.85;;;;;;;;;;7331617;19;162368;-13
2022/04/07 14:00:00;;;;;;;0.90;0.80;;;;;;;;;;7330818;19;153968;-13
2022/04/07 14:02:41;;;;;;;2.35;0.95;;;;;;;;;;7331835;19;153623;-14
2022/04/07 14:05:12;;;;;;;0.80;0.77;;;;;;;;;;7331395;19;161958;-13
2022/04/07 14:07:44;;;;;;;2.28;0.85;;;;;;;;;;7331371;19;162354;-14
2022/04/07 14:10:19;;;;;;;;;;;;;;;;;;7331021;19;154238;-15
2022/04/07 14:12:50;;;;;;;0.70;0.70;;;;;;;;;;7331592;19;153363;-14
2022/04/07 14:15:23;;;;;;;0.65;0.65;;;;;;;;;;7331253;19;161955;-13
2022/04/07 14:17:55;;;;;;;2.47;1.00;;;;;;;;;;7330892;19;162478;-15
2022/04/07 14:20:29;;;;;;;1.48;1.10;;;;;;;;;;7329946;19;154096;-14
2022/04/07 14:23:00;;;;;;;1.70;1.02;;;;;;;;;;7331163;19;153670;-14
2022/04/07 14:25:34;;;;;;;2.70;0.80;;;;;;;;;;7328417;19;162155;-14
2022/04/07 14:28:07;;;;;;;1.73;0.80;;;;;;;;;;7330628;19;162362;-13
2022/04/07 14:30:38;;;;;;;0.70;0.70;;;;;;;;;;7331291;19;154240;-14
2022/04/07 14:33:10;;;;;;;1.83;0.80;;;;;;;;;;7330882;19;153537;-15
2022/04/07 14:35:43;;;;;;;1.50;0.90;;;;;;;;;;7330939;19;161822;-14
2022/04/07 14:38:14;;;;;;;2.20;1.00;;;;;;;;;;7330682;19;162396;-14
2022/04/07 14:40:48;;;;;;;2.20;0.68;;;;;;;;;;7329530;19;154250;-15
2022/04/07 14:43:20;;;;;;;1.25;0.75;;;;;;;;;;7329570;19;153848;-14
2022/04/07 14:45:53;;;;;;;1.15;0.90;;;;;;;;;;7330323;19;161799;-14
2022/04/07 14:48:24;;;;;;;;;;;;;;;;;;7330934;19;162405;-14
2022/04/07 14:50:55;;;;;;;1.08;0.80;;;;;;;;;;7330425;19;154163;-14
2022/04/07 14:53:26;;;;;;;2.13;1.00;;;;;;;;;;7329252;19;153547;-14
2022/04/07 14:56:00;;;;;;;1.85;0.85;;;;;;;;;;7330008;19;161809;-14
2022/04/07 14:58:32;;;;;;;1.55;1.00;;;;;;;;;;7328676;19;162429;-14
2022/04/07 15:01:04;;;;;;;0.90;0.90;;;;;;;;;;7329032;19;154130;-14
2022/04/07 15:03:35;;;;;;;1.38;0.90;;;;;;;;;;7330067;19;153581;-14
2022/04/07 15:06:06;;;;;;;2.53;1.05;;;;;;;;;;7329658;19;161820;-14
2022/04/07 15:08:37;;;;;;;2.25;0.90;;;;;;;;;;7329341;19;162585;-14
2022/04/07 15:11:12;;;;;;;2.22;0.80;;;;;;;;;;7329943;19;153940;-14
2022/04/07 15:13:43;;;;;;;0.73;0.73;;;;;;;;;;7329895;19;153561;-14
2022/04/07 15:16:14;;;;;;;1.60;0.90;;;;;;;;;;7328051;19;161925;-14
2022/04/07 15:18:46;;;;;;;0.60;0.60;;;;;;;;;;7328065;19;162650;-13
2022/04/07 15:21:18;;;;;;;1.42;0.80;;;;;;;;;;7328411;19;154130;-14
2022/04/07 15:23:49;;;;;;;0.83;0.70;;;;;;;;;;7328456;19;154794;-15
2022/04/07 15:26:23;;;;;;;3.47;1.10;;;;;;;;;;7327690;19;161784;-14
2022/04/07 15:28:54;;;;;;;2.03;0.77;;;;;;;;;;7328926;19;162366;-14
2022/04/07 15:31:26;;;;;;;0.75;0.70;;;;;;;;;;7329023;19;154124;-14
2022/04/07 15:33:57;;;;;;;1.13;0.95;;;;;;;;;;7329058;19;153509;-15
2022/04/07 15:36:28;;;;;;;0.85;0.75;;;;;;;;;;7328571;19;162012;-16
2022/04/07 15:39:00;;;;;;;0.70;0.68;;;;;;;;;;7334156;19;162596;-15
2022/04/07 15:41:34;;;;;;;0.60;0.60;;;;;;;;;;7334965;19;153951;-14
2022/04/07 15:44:06;;;;;;;1.23;0.63;;;;;;;;;;7335993;19;153493;-14
2022/04/07 15:46:37;;;;;;;0.82;0.68;;;;;;;;;;7335487;19;161885;-13
2022/04/07 15:49:09;;;;;;;0.85;0.60;;;;;;;;;;7335227;19;162554;-17
2022/04/07 15:51:41;;;;;;;1.92;0.70;;;;;;;;;;7336005;19;154137;-14
2022/04/07 15:54:14;;;;;;;0.90;0.63;;;;;;;;;;7335347;19;153716;-16
2022/04/07 15:56:48;;;;;;;1.05;0.93;;;;;;;;;;7334951;19;161928;-15
2022/04/07 15:59:19;;;;;;;0.85;0.82;;;;;;;;;;7334787;19;162565;-15
2022/04/07 16:01:50;;;;;;;3.28;1.08;;;;;;;;;;7332884;19;153985;-16
2022/04/07 16:04:22;;;;;;;2.50;0.70;;;;;;;;;;7335047;19;153688;-14
2022/04/07 16:06:53;;;;;;;1.17;1.08;;;;;;;;;;7334754;19;161807;-14
2022/04/07 16:09:25;;;;;;;1.23;0.98;;;;;;;;;;7334491;19;162523;-13
2022/04/07 16:11:59;;;;;;;0.93;0.90;;;;;;;;;;7334728;19;154054;-15
2022/04/07 16:14:30;;;;;;;1.33;0.70;;;;;;;;;;7333925;19;153487;-15
2022/04/07 16:17:01;;;;;;;0.80;0.80;;;;;;;;;;7334341;19;162642;-14
2022/04/07 16:19:32;;;;;;;1.02;0.60;;;;;;;;;;7332769;19;162670;-15
2022/04/07 16:22:04;;;;;;;1.10;0.98;;;;;;;;;;7333257;19;153954;-14
2022/04/07 16:24:35;;;;;;;1.90;0.85;;;;;;;;;;7334231;19;153805;-15
2022/04/07 16:27:09;;;;;;;2.33;1.00;;;;;;;;;;7331890;19;161767;-14
2022/04/07 16:29:41;;;;;;;0.60;0.60;;;;;;;;;;7334187;19;163143;-15
2022/04/07 16:32:12;;;;;;;1.02;0.80;;;;;;;;;;7334372;19;153902;-14
2022/04/07 16:34:44;;;;;;;1.67;0.80;;;;;;;;;;7333129;19;153587;-14
2022/04/07 16:37:17;;;;;;;1.00;0.80;;;;;;;;;;7333540;19;161774;-15
2022/04/07 16:39:48;;;;;;;2.13;0.83;;;;;;;;;;7333874;19;162605;-15
2022/04/07 16:42:22;;;;;;;1.75;0.80;;;;;;;;;;7333208;19;154394;-14
2022/04/07 16:44:53;;;;;;;2.00;0.93;;;;;;;;;;7334077;19;153738;-14
2022/04/07 16:47:24;;;;;;;1.45;1.10;;;;;;;;;;7333360;19;161783;-12
2022/04/07 16:49:56;;;;;;;0.85;0.82;;;;;;;;;;7333089;19;162650;-13
2022/04/07 16:52:28;;;;;;;2.20;0.82;;;;;;;;;;7334063;19;153921;-13
2022/04/07 16:54:59;;;;;;;2.30;0.90;;;;;;;;;;7333499;19;153534;-14
2022/04/07 16:57:33;;;;;;;1.27;0.85;;;;;;;;;;7333319;19;161780;-15
2022/04/07 17:00:06;;;;;;;1.27;1.00;;;;;;;;;;7332125;19;162414;-14
2022/04/07 17:02:38;;;;;;;2.42;1.02;;;;;;;;;;7332441;19;153970;-14
2022/04/07 17:05:12;;;;;;;1.52;1.10;;;;;;;;;;7333239;19;153530;-13
2022/04/07 17:07:43;;;;;;;4.45;1.00;;;;;;;;;;7333183;19;162167;-15
2022/04/07 17:10:16;;;;;;;1.05;0.88;;;;;;;;;;7332738;19;162370;-14
2022/04/07 17:12:50;;;;;;;1.65;0.80;;;;;;;;;;7333331;19;154246;-14
2022/04/07 17:15:22;;;;;;;3.58;1.23;;;;;;;;;;7333152;19;153496;-14
2022/04/07 17:17:53;;;;;;;1.30;0.90;;;;;;;;;;7332704;19;161843;-15
2022/04/07 17:20:24;;;;;;;3.17;0.80;;;;;;;;;;7332542;19;162531;-14
2022/04/07 17:22:55;;;;;;;2.15;0.88;;;;;;;;;;7331590;19;154014;-14
2022/04/07 17:25:27;;;;;;;0.82;0.82;;;;;;;;;;7330820;19;153611;-15
2022/04/07 17:28:01;;;;;;;3.35;1.15;;;;;;;;;;7332590;19;162689;-14
2022/04/07 17:30:32;;;;;;;2.28;1.00;;;;;;;;;;7331292;19;162553;-14
2022/04/07 17:33:03;;;;;;;1.20;0.77;;;;;;;;;;7331593;19;154044;-15
2022/04/07 17:35:34;;;;;;;2.88;1.15;;;;;;;;;;7332171;19;153576;-15
2022/04/07 17:38:06;;;;;;;0.93;0.93;;;;;;;;;;7332338;19;162049;-14
2022/04/07 17:40:37;;;;;;;1.13;1.00;;;;;;;;;;7330878;19;162422;-13
2022/04/07 17:43:12;;;;;;;2.50;1.13;;;;;;;;;;7330936;19;154004;-16
2022/04/07 17:45:43;;;;;;;2.03;0.95;;;;;;;;;;7332219;19;153236;-14
2022/04/07 17:48:15;;;;;;;2.08;1.38;;;;;;;;;;7332154;19;162075;-15
2022/04/07 17:50:47;;;;;;;1.27;0.93;;;;;;;;;;7330578;19;162629;-14
2022/04/07 17:53:18;;;;;;;1.08;1.00;;;;;;;;;;7331885;19;154026;-16
2022/04/07 17:55:49;;;;;;;1.40;1.10;;;;;;;;;;7332082;19;153980;-15
2022/04/07 17:58:23;;;;;;;1.50;0.70;;;;;;;;;;7330440;19;161650;-15
2022/04/07 18:00:55;;;;;;;1.00;0.77;;;;;;;;;;7329373;19;162387;-15
2022/04/07 18:03:26;;;;;;;1.10;1.00;;;;;;;;;;7329411;19;153878;-15
2022/04/07 18:05:57;;;;;;;1.48;1.13;;;;;;;;;;7331838;19;153585;-15
2022/04/07 18:08:29;;;;;;;2.42;0.95;;;;;;;;;;7331454;19;162107;-16
2022/04/07 18:11:03;;;;;;;0.70;0.70;;;;;;;;;;7331161;19;162396;-15
2022/04/07 18:13:37;;;;;;;7.38;1.00;;;;;;;;;;7331702;19;154168;-17
2022/04/07 18:16:09;;;;;;;3.20;1.10;;;;;;;;;;7330392;19;153549;-13
2022/04/07 18:18:40;;;;;;;2.40;0.90;;;;;;;;;;7331125;19;161981;-14
2022/04/07 18:21:11;;;;;;;1.92;1.13;;;;;;;;;;7330508;19;162381;-15
2022/04/07 18:23:43;;;;;;;2.97;1.23;;;;;;;;;;7329500;19;154023;-15
2022/04/07 18:26:15;;;;;;;2.45;1.05;;;;;;;;;;7329158;19;153539;-17
2022/04/07 18:28:48;;;;;;;2.85;0.90;;;;;;;;;;7330413;19;161920;-15
2022/04/07 18:31:20;;;;;;;1.38;1.05;;;;;;;;;;7329447;19;162302;-18
2022/04/07 18:33:52;;;;;;;1.20;1.00;;;;;;;;;;7331050;19;154195;-23
2022/04/07 18:36:24;;;;;;;5.72;1.05;;;;;;;;;;7330884;19;153682;-18
2022/04/07 18:38:55;;;;;;;1.25;0.80;;;;;;;;;;7329526;19;161832;-15
2022/04/07 18:41:26;;;;;;;1.08;0.90;;;;;;;;;;7330452;19;162334;-14
2022/04/07 18:44:00;;;;;;;0.60;0.60;;;;;;;;;;7328064;19;154075;-16
2022/04/07 18:46:32;;;;;;;0.88;0.88;;;;;;;;;;7330379;19;153407;-15
2022/04/07 18:49:04;;;;;;;2.28;0.93;;;;;;;;;;7333271;19;162139;-15
2022/04/07 18:51:36;;;;;;;2.83;0.73;;;;;;;;;;7330155;19;162442;-15
2022/04/07 18:54:08;;;;;;;1.30;0.90;;;;;;;;;;7330680;19;154393;-14
2022/04/07 18:56:39;;;;;;;1.38;0.65;;;;;;;;;;7330229;19;153528;-14
2022/04/07 18:59:15;;;;;;;3.08;1.20;;;;;;;;;;7330032;19;161944;-15
2022/04/07 19:01:49;;;;;;;2.35;1.17;;;;;;;;;;7329697;19;162390;-15
2022/04/07 19:04:21;;;;;;;3.83;3.53;;;;;;;;;;7328495;19;154219;-15
2022/04/07 19:06:52;;;;;;;10.25;5.90;;;;;;;;;;7329679;19;153676;-17
2022/04/07 19:09:24;;;;;;;8.13;5.53;;;;;;;;;;7328681;19;161737;-15
2022/04/07 19:11:57;;;;;;;5.17;2.47;;;;;;;;;;7329985;19;162513;-14
2022/04/07 19:14:31;;;;;;;7.78;5.82;;;;;;;;;;7332472;19;153989;-15
2022/04/07 19:17:03;;;;;;;14.02;8.52;;;;;;;;;;7329536;19;153693;-14
2022/04/07 19:19:34;;;;;;;6.13;4.07;;;;;;;;;;7329037;19;162125;-13
2022/04/07 19:22:06;;;;;;;7.40;4.10;;;;;;;;;;7331450;19;162621;-13
2022/04/07 19:24:38;;;;;;;18.00;7.53;;;;;;;;;;7326927;19;153982;-14
2022/04/07 19:27:10;;;;;;;10.87;6.03;;;;;;;;;;7326815;19;153702;-14
2022/04/07 19:29:45;;;;;;;11.18;7.13;;;;;;;;;;7329086;19;162134;-13
2022/04/07 19:32:18;;;;;;;14.52;7.78;;;;;;;;;;7329114;19;162535;-13
2022/04/07 19:34:53;;;;;;;6.22;4.60;;;;;;;;;;7328109;19;154154;-14
2022/04/07 19:37:24;;;;;;;18.05;7.50;;;;;;;;;;7328944;19;153580;-14
2022/04/07 19:39:56;;;;;;;10.43;6.75;;;;;;;;;;7328543;19;161612;-14
2022/04/07 19:42:27;;;;;;;15.70;9.50;;;;;;;;;;7328666;19;162444;-14
2022/04/07 19:45:03;;;;;;;12.45;7.88;;;;;;;;;;7327110;19;154058;-14
2022/04/07 19:47:36;;;;;;;18.02;8.93;;;;;;;;;;7328634;19;153666;-16
2022/04/07 19:50:13;;;;;;;14.15;7.90;;;;;;;;;;7330025;19;161808;-15
2022/04/07 19:52:44;;;;;;;11.43;7.85;;;;;;;;;;7332137;19;162462;-16
2022/04/07 19:55:16;;;;;;;16.65;7.35;;;;;;;;;;7331826;19;153998;-15
2022/04/07 19:57:47;;;;;;;14.65;7.50;;;;;;;;;;7330995;19;153405;-15
2022/04/07 20:00:24;;;;;;;14.90;7.00;;;;;;;;;;7330763;19;161855;-14
2022/04/07 20:02:56;;;;;;;10.20;6.05;;;;;;;;;;7330796;19;162508;-15
2022/04/07 20:05:27;;;;;;;13.35;7.03;;;;;;;;;;7329202;19;154067;-15
2022/04/07 20:07:59;;;;;;;13.48;7.60;;;;;;;;;;7331206;19;153550;-14
2022/04/07 20:10:31;;;;;;;13.30;7.47;;;;;;;;;;7330317;19;161770;-14
2022/04/07 20:13:02;;;;;;;10.98;7.25;;;;;;;;;;7330195;19;162417;-14
2022/04/07 20:15:38;;;;;;;11.82;6.43;;;;;;;;;;7330661;19;153963;-14
2022/04/07 20:18:10;;;;;;;9.80;6.90;;;;;;;;;;7330340;19;153622;-14
2022/04/07 20:20:41;;;;;;;8.77;5.55;;;;;;;;;;7330779;19;161849;-14
2022/04/07 20:23:13;;;;;;;15.70;6.63;;;;;;;;;;7331553;19;162311;-14
2022/04/07 20:25:45;;;;;;;10.43;6.82;;;;;;;;;;7335632;19;155977;-15
2022/04/07 20:28:19;;;;;;;10.18;6.60;;;;;;;;;;7337614;19;153833;-13
2022/04/07 20:30:53;;;;;;;12.50;7.15;;;;;;;;;;7335687;19;161766;-13
2022/04/07 20:33:26;;;;;;;10.68;5.85;;;;;;;;;;7337275;19;163911;-13
2022/04/07 20:35:58;;;;;;;8.45;6.00;;;;;;;;;;7337550;19;154422;-14
2022/04/07 20:38:30;;;;;;;9.80;6.20;;;;;;;;;;7337942;19;153792;-15
2022/04/07 20:41:01;;;;;;;7.38;5.55;;;;;;;;;;7333538;19;161957;-13
2022/04/07 20:43:32;;;;;;;12.90;6.30;;;;;;;;;;7333526;19;162474;-13
2022/04/07 20:46:06;;;;;;;9.35;5.57;;;;;;;;;;7331125;19;154038;-14
2022/04/07 20:48:37;;;;;;;10.05;5.63;;;;;;;;;;7333718;19;153611;-15
2022/04/07 20:51:08;;;;;;;11.77;5.82;;;;;;;;;;7333955;19;162093;-14
2022/04/07 20:53:40;;;;;;;9.43;5.63;;;;;;;;;;7336271;19;162395;-15
2022/04/07 20:56:11;;;;;;;11.55;5.60;;;;;;;;;;7336531;19;153997;-13
2022/04/07 20:58:43;;;;;;;7.38;5.60;;;;;;;;;;7335646;19;153286;-15
2022/04/07 21:01:17;;;;;;;9.13;5.75;;;;;;;;;;7336290;19;161854;-13
2022/04/07 21:03:50;;;;;;;11.90;6.20;;;;;;;;;;7336250;19;162503;-13
2022/04/07 21:06:21;;;;;;;9.32;5.53;;;;;;;;;;7334278;19;154092;-13
2022/04/07 21:08:52;;;;;;;9.77;5.93;;;;;;;;;;7335818;19;153709;-14
2022/04/07 21:11:24;;;;;;;7.90;5.38;;;;;;;;;;7336277;19;161982;-13
2022/04/07 21:13:58;;;;;;;12.23;5.88;;;;;;;;;;7336029;19;162464;-14
2022/04/07 21:16:32;;;;;;;11.43;5.68;;;;;;;;;;7336136;19;154034;-15
2022/04/07 21:19:03;;;;;;;8.55;6.18;;;;;;;;;;7336508;19;155720;-13
2022/04/07 21:21:34;;;;;;;6.82;5.40;;;;;;;;;;7335782;19;161983;-13
2022/04/07 21:24:07;;;;;;;7.38;5.05;;;;;;;;;;7335417;19;162374;-14
2022/04/07 21:26:39;;;;;;;9.90;5.43;;;;;;;;;;7334213;19;154018;-14
2022/04/07 21:29:10;;;;;;;7.38;5.28;;;;;;;;;;7335191;19;153625;-14
2022/04/07 21:31:44;;;;;;;7.22;5.05;;;;;;;;;;7335192;19;161832;-14
2022/04/07 21:34:15;;;;;;;8.50;5.35;;;;;;;;;;7335553;19;162499;-15
2022/04/07 21:36:48;;;;;;;7.85;5.15;;;;;;;;;;7334340;19;153974;-14
2022/04/07 21:39:19;;;;;;;7.65;4.82;;;;;;;;;;7335527;19;154134;-13
2022/04/07 21:41:52;;;;;;;9.95;5.30;;;;;;;;;;7334118;19;161724;-14
2022/04/07 21:44:23;;;;;;;;;;;;;;;;;;7335487;19;162349;-14
2022/04/07 21:46:57;;;;;;;6.10;4.40;;;;;;;;;;7333231;19;153925;-14
2022/04/07 21:49:28;;;;;;;6.50;4.38;;;;;;;;;;7335763;19;153615;-13
2022/04/07 21:51:59;;;;;;;10.32;5.03;;;;;;;;;;7334017;19;161844;-14
2022/04/07 21:54:30;;;;;;;7.28;4.93;;;;;;;;;;7334279;19;162404;-13
2022/04/07 21:57:01;;;;;;;11.35;4.57;;;;;;;;;;7334108;19;153949;-15
2022/04/07 21:59:34;;;;;;;6.65;4.57;;;;;;;;;;7333960;19;153628;-13
2022/04/07 22:02:09;;;;;;;10.18;5.10;;;;;;;;;;7334865;19;161805;-14
2022/04/07 22:04:40;;;;;;;7.57;4.78;;;;;;;;;;7331097;19;162571;-14
2022/04/07 22:07:11;;;;;;;8.23;5.30;;;;;;;;;;7328888;19;154037;-13
2022/04/07 22:09:43;;;;;;;6.63;4.15;;;;;;;;;;7330351;19;153547;-14
2022/04/07 22:12:14;;;;;;;9.35;4.43;;;;;;;;;;7330866;19;162050;-14
2022/04/07 22:14:45;;;;;;;8.82;4.40;;;;;;;;;;7330828;19;162454;-15
2022/04/07 22:17:19;;;;;;;5.47;3.85;;;;;;;;;;7331284;19;154208;-14
2022/04/07 22:19:50;;;;;;;9.15;4.82;;;;;;;;;;7330760;19;153756;-19
2022/04/07 22:22:37;;;;;;;5.55;3.72;;;;;;;;;;7330544;19;161792;-15
2022/04/07 22:25:10;;;;;;;9.88;4.65;;;;;;;;;;7330328;19;162669;-15
2022/04/07 22:27:41;;;;;;;6.07;3.93;;;;;;;;;;7327410;19;154199;-13
2022/04/07 22:30:14;;;;;;;5.03;3.55;;;;;;;;;;7330395;19;153421;-15
2022/04/07 22:32:48;;;;;;;6.65;3.63;;;;;;;;;;7330128;19;161839;-14